Time;durP1;ratioP1;P1;durP2;ratioP2;P2;SDS_P1;SDS_P2;PMS_P1;PMS_P2;Temp;Humidity;BMP_temperature;BMP_pressure;BME280_temperature;BME280_humidity;BME280_pressure;Samples;Min_cycle;Max_cycle;Signal;HPM_P1;HPM_P2
2021/11/14 00:02:34;;;;;;;88.97;38.58;;;;;;;3.60;100.00;99064.70;2165032;81;20987;-87
2021/11/14 00:05:35;;;;;;;78.85;37.28;;;;;;;3.59;100.00;99065.19;2165277;82;21095;-86
2021/11/14 00:08:35;;;;;;;75.22;35.35;;;;;;;3.64;100.00;99064.78;2182435;82;21444;-85
2021/11/14 00:11:36;;;;;;;87.02;38.40;;;;;;;3.65;100.00;99065.95;2182313;82;21077;-87
2021/11/14 00:14:37;;;;;;;105.30;41.58;;;;;;;3.61;100.00;99065.05;2182575;82;20969;-86
2021/11/14 00:17:38;;;;;;;104.00;41.02;;;;;;;3.54;100.00;99073.79;2182308;82;21001;-86
2021/11/14 00:20:39;;;;;;;106.00;41.58;;;;;;;3.47;100.00;99073.12;2182393;81;21078;-86
2021/11/14 00:23:40;;;;;;;103.20;41.08;;;;;;;3.45;100.00;99071.13;2182313;82;20961;-86
2021/11/14 00:26:41;;;;;;;96.55;40.45;;;;;;;3.41;100.00;99072.69;2181994;82;21012;-86
2021/11/14 00:29:41;;;;;;;116.45;43.60;;;;;;;3.35;100.00;99070.59;2182385;82;20988;-87
2021/11/14 00:32:42;;;;;;;102.50;40.30;;;;;;;3.25;100.00;99070.99;2182330;81;21310;-87
2021/11/14 00:35:43;;;;;;;102.65;40.63;;;;;;;3.24;100.00;99070.65;2182302;82;21506;-86
2021/11/14 00:38:46;;;;;;;96.70;39.10;;;;;;;3.29;100.00;99071.11;2180820;81;21570;-87
2021/11/14 00:41:47;;;;;;;118.55;43.55;;;;;;;3.37;100.00;99072.58;2187497;81;21098;-87
2021/11/14 00:44:48;;;;;;;94.65;39.75;;;;;;;3.36;100.00;99074.00;2187460;81;21011;-86
2021/11/14 00:47:49;;;;;;;92.70;38.73;;;;;;;3.31;100.00;99069.21;2187521;81;21046;-87
2021/11/14 00:50:50;;;;;;;91.95;38.05;;;;;;;3.28;100.00;99075.91;2187459;81;20924;-87
2021/11/14 00:53:50;;;;;;;83.10;36.90;;;;;;;3.31;100.00;99074.86;2187951;81;21517;-88
2021/11/14 00:56:51;;;;;;;81.85;35.68;;;;;;;3.32;100.00;99079.09;2187348;81;20971;-86
2021/11/14 00:59:52;;;;;;;73.15;35.80;;;;;;;3.34;100.00;99084.48;2187531;81;21039;-87
2021/11/14 01:02:53;;;;;;;75.97;34.92;;;;;;;3.33;100.00;99076.38;2187498;81;21506;-88
2021/11/14 01:05:54;;;;;;;71.80;34.10;;;;;;;3.32;100.00;99080.39;2187339;81;21051;-88
2021/11/14 01:08:54;;;;;;;73.65;35.05;;;;;;;3.32;100.00;99082.50;2187372;81;20986;-88
2021/11/14 01:11:55;;;;;;;69.35;31.42;;;;;;;3.31;100.00;99083.45;2187311;81;21034;-86
2021/11/14 01:14:56;;;;;;;78.05;34.92;;;;;;;3.31;100.00;99076.16;2187467;81;20964;-87
2021/11/14 01:17:57;;;;;;;71.40;32.83;;;;;;;3.26;100.00;99079.11;2187330;81;21047;-86
2021/11/14 01:20:58;;;;;;;66.22;32.05;;;;;;;3.28;100.00;99085.45;2187534;81;21483;-86
2021/11/14 01:23:59;;;;;;;67.55;31.68;;;;;;;3.26;100.00;99082.98;2187382;81;20952;-87
2021/11/14 01:27:00;;;;;;;77.82;34.60;;;;;;;3.23;100.00;99089.72;2187261;81;21584;-87
2021/11/14 01:30:01;;;;;;;68.72;31.12;;;;;;;3.27;100.00;99098.86;2187124;81;21035;-87
2021/11/14 01:33:02;;;;;;;63.78;30.48;;;;;;;3.25;100.00;99092.17;2187394;81;20955;-87
2021/11/14 01:36:03;;;;;;;68.87;31.17;;;;;;;3.22;100.00;99093.72;2187101;81;21062;-86
2021/11/14 01:39:04;;;;;;;72.58;34.53;;;;;;;3.22;100.00;99091.14;2181850;81;21002;-87
2021/11/14 01:42:04;;;;;;;75.47;33.35;;;;;;;3.16;100.00;99089.85;2189776;80;20984;-86
2021/11/14 01:45:05;;;;;;;67.10;31.12;;;;;;;3.18;100.00;99087.14;2189674;81;21108;-85
2021/11/14 01:48:06;;;;;;;54.53;27.73;;;;;;;3.11;100.00;99086.83;2189692;81;21059;-85
2021/11/14 01:51:07;;;;;;;57.17;27.20;;;;;;;3.04;100.00;99090.84;2189853;80;21543;-86
2021/11/14 01:54:08;;;;;;;58.50;30.10;;;;;;;2.96;100.00;99096.63;2189833;81;21025;-88
2021/11/14 01:57:08;;;;;;;56.83;28.17;;;;;;;2.94;100.00;99092.05;2190075;81;21047;-86
2021/11/14 02:00:09;;;;;;;55.12;28.92;;;;;;;2.93;100.00;99089.12;2190189;81;21041;-88
2021/11/14 02:03:10;;;;;;;56.28;28.23;;;;;;;2.87;100.00;99090.89;2189552;81;21056;-87
2021/11/14 02:06:11;;;;;;;54.55;28.60;;;;;;;2.87;100.00;99096.53;2189607;81;21038;-88
2021/11/14 02:09:12;;;;;;;53.98;27.50;;;;;;;2.83;100.00;99094.64;2189403;81;21060;-86
2021/11/14 02:12:13;;;;;;;56.18;28.70;;;;;;;2.79;100.00;99095.37;2189415;80;21067;-87
2021/11/14 02:15:14;;;;;;;52.62;26.90;;;;;;;2.73;100.00;99092.44;2189372;81;21029;-88
2021/11/14 02:18:15;;;;;;;58.17;28.67;;;;;;;2.72;100.00;99092.09;2189334;81;21042;-87
2021/11/14 02:21:16;;;;;;;60.95;29.60;;;;;;;2.67;100.00;99101.52;2189574;81;21039;-87
2021/11/14 02:24:17;;;;;;;51.48;26.42;;;;;;;2.64;100.00;99108.20;2189666;81;21539;-87
2021/11/14 02:27:18;;;;;;;70.75;34.23;;;;;;;2.63;100.00;99105.27;2189709;81;20984;-88
2021/11/14 02:30:20;;;;;;;58.60;27.55;;;;;;;2.67;100.00;99111.85;2189602;81;20999;-86
2021/11/14 02:33:22;;;;;;;68.05;31.97;;;;;;;2.65;100.00;99112.45;2189224;80;20988;-87
2021/11/14 02:36:22;;;;;;;65.25;29.87;;;;;;;2.62;100.00;99117.02;2189533;81;21515;-86
2021/11/14 02:39:23;;;;;;;74.10;35.08;;;;;;;2.63;100.00;99120.77;2198542;80;21021;-88
2021/11/14 02:42:24;;;;;;;66.90;31.33;;;;;;;2.62;100.00;99120.90;2222203;80;21576;-88
2021/11/14 02:45:25;;;;;;;68.05;32.70;;;;;;;2.66;100.00;99125.73;2222056;80;21018;-87
2021/11/14 02:48:26;;;;;;;64.00;31.45;;;;;;;2.69;100.00;99131.94;2222058;80;21472;-87
2021/11/14 02:51:26;;;;;;;60.98;31.57;;;;;;;2.68;100.00;99135.95;2224766;80;21009;-85
2021/11/14 02:54:27;;;;;;;69.95;32.90;;;;;;;2.68;100.00;99133.36;2187845;81;20943;-87
2021/11/14 02:57:28;;;;;;;65.90;33.88;;;;;;;2.68;100.00;99134.18;2224682;80;21596;-87
2021/11/14 03:00:29;;;;;;;57.98;28.42;;;;;;;2.75;100.00;99135.83;2224356;80;21075;-87
2021/11/14 03:03:30;;;;;;;66.97;34.20;;;;;;;2.74;100.00;99137.59;2224590;80;20954;-87
2021/11/14 03:06:30;;;;;;;65.80;32.50;;;;;;;2.77;100.00;99139.11;2224824;80;21132;-87
2021/11/14 03:09:31;;;;;;;66.42;32.28;;;;;;;2.78;100.00;99135.58;2224518;80;20966;-88
2021/11/14 03:12:32;;;;;;;57.27;30.92;;;;;;;2.83;100.00;99135.58;2224684;80;22215;-87
2021/11/14 03:15:33;;;;;;;58.83;28.60;;;;;;;2.87;100.00;99132.27;2224469;80;20974;-86
2021/11/14 03:18:33;;;;;;;64.25;31.85;;;;;;;2.81;100.00;99131.45;2224505;80;20954;-87
2021/11/14 03:21:34;;;;;;;70.83;35.30;;;;;;;2.75;100.00;99139.70;2224802;80;21441;-87
2021/11/14 03:24:35;;;;;;;69.17;32.83;;;;;;;2.73;100.00;99141.09;2224685;80;21016;-87
2021/11/14 03:27:36;;;;;;;66.60;33.50;;;;;;;2.74;100.00;99138.88;2187965;81;21034;-87
2021/11/14 03:30:37;;;;;;;71.42;35.17;;;;;;;2.73;100.00;99133.81;2183997;81;21069;-86
2021/11/14 03:33:37;;;;;;;66.85;31.73;;;;;;;2.72;100.00;99142.51;2224551;80;20956;-86
2021/11/14 03:36:38;;;;;;;65.92;32.45;;;;;;;2.72;100.00;99146.39;2187966;81;20999;-86
2021/11/14 03:39:39;;;;;;;71.70;34.03;;;;;;;2.69;100.00;99146.16;2225342;79;21573;-87
2021/11/14 03:42:40;;;;;;;70.90;34.53;;;;;;;2.69;100.00;99147.45;2228270;80;21013;-89
2021/11/14 03:45:41;;;;;;;75.70;35.65;;;;;;;2.66;100.00;99146.89;2228129;80;21071;-88
2021/11/14 03:48:42;;;;;;;74.30;36.25;;;;;;;2.67;100.00;99148.53;2228029;80;20965;-86
2021/11/14 03:51:42;;;;;;;69.60;33.83;;;;;;;2.68;100.00;99148.41;2228311;80;21024;-86
2021/11/14 03:54:43;;;;;;;69.87;33.53;;;;;;;2.67;100.00;99149.82;2228390;80;20992;-88
2021/11/14 03:57:44;;;;;;;73.45;34.18;;;;;;;2.64;100.00;99147.45;2228509;80;21375;-88
2021/11/14 04:00:45;;;;;;;73.60;35.83;;;;;;;2.63;100.00;99145.81;2228443;80;21542;-86
2021/11/14 04:03:46;;;;;;;75.45;35.90;;;;;;;2.62;100.00;99141.58;2228793;80;21482;-87
2021/11/14 04:06:46;;;;;;;86.28;39.45;;;;;;;2.64;100.00;99147.45;2228497;80;21111;-86
2021/11/14 04:09:47;;;;;;;81.47;36.93;;;;;;;2.65;100.00;99145.22;2228585;80;21546;-86
2021/11/14 04:12:48;;;;;;;85.55;39.88;;;;;;;2.64;100.00;99151.33;2228627;80;21055;-87
2021/11/14 04:15:49;;;;;;;85.72;38.65;;;;;;;2.63;100.00;99152.27;2228655;80;21063;-87
2021/11/14 04:18:50;;;;;;;86.08;38.45;;;;;;;2.63;100.00;99160.03;2228657;80;20984;-85
2021/11/14 04:21:50;;;;;;;77.60;37.28;;;;;;;2.60;100.00;99161.09;2228436;80;21079;-85
2021/11/14 04:24:51;;;;;;;81.20;39.58;;;;;;;2.59;100.00;99164.63;2228341;80;20964;-85
2021/11/14 04:27:52;;;;;;;81.35;38.30;;;;;;;2.59;100.00;99164.63;2228767;80;21071;-89
2021/11/14 04:30:53;;;;;;;83.25;38.45;;;;;;;2.64;100.00;99170.72;2230796;80;21003;-78
2021/11/14 04:33:53;;;;;;;81.50;39.33;;;;;;;2.62;100.00;99167.44;2231609;80;20957;-77
2021/11/14 04:36:55;;;;;;;76.00;36.53;;;;;;;2.65;100.00;99166.75;2231116;80;21032;-78
2021/11/14 04:39:56;;;;;;;81.95;38.35;;;;;;;2.69;100.00;99174.61;2230063;80;21584;-79
2021/11/14 04:42:57;;;;;;;80.00;39.10;;;;;;;2.67;100.00;99170.50;2227010;80;21063;-78
2021/11/14 04:45:57;;;;;;;74.67;36.25;;;;;;;2.64;100.00;99181.06;2226749;80;20972;-78
2021/11/14 04:48:58;;;;;;;81.82;39.98;;;;;;;2.63;100.00;99176.84;2226834;80;20984;-83
2021/11/14 04:51:59;;;;;;;74.87;36.53;;;;;;;2.61;100.00;99182.12;2226725;80;20980;-85
2021/11/14 04:55:00;;;;;;;82.27;37.42;;;;;;;2.61;100.00;99183.42;2226593;80;20997;-78
2021/11/14 04:58:01;;;;;;;79.87;36.15;;;;;;;2.60;100.00;99188.24;2226803;80;21020;-78
2021/11/14 05:01:01;;;;;;;80.00;39.03;;;;;;;2.55;100.00;99183.41;2226460;80;21009;-83
2021/11/14 05:04:02;;;;;;;79.00;37.83;;;;;;;2.55;100.00;99191.64;2226075;80;21032;-83
2021/11/14 05:07:03;;;;;;;82.55;37.53;;;;;;;2.55;100.00;99187.76;2226394;80;20973;-85
2021/11/14 05:10:04;;;;;;;82.45;37.45;;;;;;;2.53;100.00;99188.35;2225493;80;20925;-87
2021/11/14 05:13:05;;;;;;;90.87;40.43;;;;;;;2.55;100.00;99192.93;2224635;80;21044;-86
2021/11/14 05:16:05;;;;;;;88.65;39.55;;;;;;;2.55;100.00;99201.98;2224835;80;21000;-85
2021/11/14 05:19:06;;;;;;;91.95;41.95;;;;;;;2.54;100.00;99202.45;2225599;80;21096;-87
2021/11/14 05:22:07;;;;;;;88.60;41.85;;;;;;;2.61;100.00;99204.11;2225166;80;20988;-85
2021/11/14 05:25:08;;;;;;;85.35;37.83;;;;;;;2.64;100.00;99205.16;2224938;80;21028;-86
2021/11/14 05:28:09;;;;;;;87.50;41.68;;;;;;;2.63;100.00;99205.28;2225131;80;21542;-85
2021/11/14 05:31:09;;;;;;;99.60;43.15;;;;;;;2.62;100.00;99208.33;2225042;80;21036;-80
2021/11/14 05:34:10;;;;;;;95.03;43.10;;;;;;;2.65;100.00;99210.70;2225678;80;21063;-84
2021/11/14 05:37:11;;;;;;;96.82;43.48;;;;;;;2.65;100.00;99208.56;2224158;80;20964;-84
2021/11/14 05:40:12;;;;;;;95.95;43.58;;;;;;;2.70;100.00;99220.68;2223868;80;20982;-85
2021/11/14 05:43:13;;;;;;;84.60;42.25;;;;;;;2.67;100.00;99206.70;2223816;80;21595;-85
2021/11/14 05:46:14;;;;;;;97.62;42.33;;;;;;;2.69;100.00;99221.16;2224170;80;20961;-85
2021/11/14 05:49:15;;;;;;;83.65;39.78;;;;;;;2.71;100.00;99227.02;2224110;80;21428;-85
2021/11/14 05:52:15;;;;;;;98.97;45.23;;;;;;;2.67;100.00;99229.51;2223980;80;21048;-84
2021/11/14 05:55:18;;;;;;;91.17;42.98;;;;;;;2.66;100.00;99229.16;2219805;80;20997;-84
2021/11/14 05:58:24;;;;;;;93.87;43.28;;;;;;;2.66;100.00;99238.20;2223994;80;21594;-84
2021/11/14 06:01:40;;;;;;;86.47;41.90;;;;;;;2.63;100.00;99247.47;2223670;80;21511;-83
2021/11/14 06:07:55;;;;;;;;;;;;;;;2.53;100.00;99248.63;2226673;80;21055;-83
2021/11/14 06:10:55;;;;;;;88.78;42.75;;;;;;;2.47;100.00;99259.45;2224205;80;20152;-85
2021/11/14 06:13:56;;;;;;;76.25;38.35;;;;;;;2.44;100.00;99260.13;2224063;80;21293;-86
2021/11/14 06:16:57;;;;;;;77.92;37.35;;;;;;;2.42;100.00;99268.01;2224386;80;20988;-86
2021/11/14 06:19:58;;;;;;;76.37;39.00;;;;;;;2.40;100.00;99272.95;2224524;80;20933;-84
2021/11/14 06:22:59;;;;;;;75.10;38.23;;;;;;;2.38;100.00;99287.72;2224670;80;21028;-81
2021/11/14 06:25:59;;;;;;;69.80;39.30;;;;;;;2.36;100.00;99283.96;2224141;80;21049;-85
2021/11/14 06:29:00;;;;;;;64.12;36.28;;;;;;;2.34;100.00;99291.48;2223997;80;21083;-86
2021/11/14 06:32:01;;;;;;;62.03;32.73;;;;;;;2.33;100.00;99298.88;2224034;80;21147;-85
2021/11/14 06:35:02;;;;;;;58.17;33.28;;;;;;;2.29;100.00;99303.47;2224342;80;22045;-84
2021/11/14 06:38:03;;;;;;;74.60;38.00;;;;;;;2.28;100.00;99309.08;2224199;80;21015;-83
2021/11/14 06:41:04;;;;;;;63.68;31.87;;;;;;;2.29;100.00;99312.51;2224378;79;20993;-84
2021/11/14 06:44:05;;;;;;;68.47;34.05;;;;;;;2.37;100.00;99320.97;2223679;80;21048;-85
2021/11/14 06:47:05;;;;;;;59.93;32.08;;;;;;;2.36;100.00;99325.78;2223807;80;21028;-86
2021/11/14 06:50:06;;;;;;;66.87;36.88;;;;;;;2.39;100.00;99325.11;2223973;80;21012;-91
2021/11/14 06:53:07;;;;;;;64.53;34.45;;;;;;;2.45;100.00;99333.69;2223754;80;21015;-86
2021/11/14 06:56:08;;;;;;;56.25;31.90;;;;;;;2.48;100.00;99339.95;2224565;80;21459;-89
2021/11/14 06:59:08;;;;;;;64.90;33.42;;;;;;;2.49;100.00;99346.76;2225199;80;21055;-87
2021/11/14 07:02:09;;;;;;;64.60;33.10;;;;;;;2.52;100.00;99352.16;2224278;80;20984;-91
2021/11/14 07:05:10;;;;;;;67.20;36.38;;;;;;;2.53;100.00;99349.45;2224587;80;22130;-90
2021/11/14 07:08:11;;;;;;;61.33;34.63;;;;;;;2.60;100.00;99351.13;2224685;80;21551;-90
2021/11/14 07:11:12;;;;;;;68.22;37.42;;;;;;;2.71;100.00;99355.50;2224430;80;20993;-89
2021/11/14 07:14:12;;;;;;;59.05;33.80;;;;;;;2.74;100.00;99359.14;2224087;80;21008;-85
2021/11/14 07:17:15;;;;;;;60.25;33.80;;;;;;;2.80;100.00;99356.11;2223889;80;21036;-84
2021/11/14 07:20:16;;;;;;;64.32;35.52;;;;;;;2.86;100.00;99366.01;2224227;80;21563;-84
2021/11/14 07:23:17;;;;;;;56.40;32.05;;;;;;;2.93;100.00;99354.73;2223913;80;21012;-84
2021/11/14 07:26:17;;;;;;;62.48;36.08;;;;;;;2.96;100.00;99361.79;2224067;80;20985;-84
2021/11/14 07:29:18;;;;;;;53.00;30.72;;;;;;;2.98;100.00;99361.67;2223936;80;21040;-84
2021/11/14 07:32:20;;;;;;;52.83;31.80;;;;;;;2.99;100.00;99356.38;2224186;80;21000;-84
2021/11/14 07:35:21;;;;;;;59.63;33.85;;;;;;;3.01;100.00;99353.19;2224002;80;21068;-83
2021/11/14 07:38:21;;;;;;;55.17;31.70;;;;;;;3.03;100.00;99363.45;2224308;80;20961;-83
2021/11/14 07:41:22;;;;;;;60.73;33.20;;;;;;;3.08;100.00;99355.68;2224125;80;21143;-84
2021/11/14 07:44:23;;;;;;;59.83;33.25;;;;;;;3.10;100.00;99350.38;2223918;80;21515;-87
2021/11/14 07:47:24;;;;;;;61.33;34.23;;;;;;;3.15;100.00;99358.63;2223778;80;21040;-89
2021/11/14 07:50:25;;;;;;;61.98;34.63;;;;;;;3.24;100.00;99364.88;2224099;80;21000;-91
2021/11/14 07:53:26;;;;;;;56.18;33.88;;;;;;;3.31;100.00;99366.06;2224100;80;21004;-92
2021/11/14 07:56:27;;;;;;;56.40;32.48;;;;;;;3.37;100.00;99367.69;2224083;80;21019;-90
2021/11/14 07:59:28;;;;;;;64.47;33.53;;;;;;;3.33;100.00;99366.28;2224279;80;22085;-87
2021/11/14 08:02:29;;;;;;;57.25;33.90;;;;;;;3.30;100.00;99370.41;2224021;80;21044;-86
2021/11/14 08:05:30;;;;;;;59.38;34.85;;;;;;;3.30;100.00;99371.70;2224084;80;20989;-86
2021/11/14 08:08:31;;;;;;;56.45;32.90;;;;;;;3.38;100.00;99376.27;2223864;80;21066;-86
2021/11/14 08:11:33;;;;;;;60.95;33.60;;;;;;;3.50;100.00;99383.59;2224356;80;21544;-86
2021/11/14 08:14:34;;;;;;;58.83;33.23;;;;;;;3.57;100.00;99387.36;2224651;80;21077;-91
2021/11/14 08:17:34;;;;;;;58.80;33.45;;;;;;;3.67;100.00;99385.70;2224272;80;21055;-86
2021/11/14 08:20:36;;;;;;;58.80;33.18;;;;;;;3.86;100.00;99387.67;2224364;80;21063;-86
2021/11/14 08:23:36;;;;;;;57.35;33.67;;;;;;;3.86;100.00;99387.67;2224069;80;21056;-85
2021/11/14 08:26:37;;;;;;;45.88;27.77;;;;;;;4.00;100.00;99386.09;2223580;80;20981;-88
2021/11/14 08:29:38;;;;;;;49.33;30.25;;;;;;;4.08;100.00;99386.80;2223902;80;20999;-87
2021/11/14 08:32:39;;;;;;;47.90;30.27;;;;;;;4.14;100.00;99394.91;2224296;80;21503;-85
2021/11/14 08:35:40;;;;;;;51.65;29.37;;;;;;;4.27;100.00;99398.64;2224193;80;20964;-89
2021/11/14 08:38:41;;;;;;;56.25;34.15;;;;;;;4.35;100.00;99406.63;2224134;80;21627;-82
2021/11/14 08:41:44;;;;;;;56.95;33.28;;;;;;;4.46;100.00;99405.75;2213798;79;21603;-85
2021/11/14 08:44:45;;;;;;;52.78;32.78;;;;;;;4.55;100.00;99419.28;2205711;81;21042;-87
2021/11/14 08:47:51;;;;;;;49.15;29.25;;;;;;;4.62;100.00;99417.84;2205008;80;21024;-86
2021/11/14 08:50:50;;;;;;;50.78;31.82;;;;;;;4.63;100.00;99416.89;2204856;80;21079;-88
2021/11/14 08:53:54;;;;;;;53.08;31.90;;;;;;;4.70;100.00;99412.86;2205198;81;21482;-85
2021/11/14 08:56:54;;;;;;;56.18;32.08;;;;;;;4.82;100.00;99412.31;2204892;81;21471;-88
2021/11/14 08:59:57;;;;;;;52.23;31.02;;;;;;;4.84;100.00;99415.61;2204367;80;21067;-88
2021/11/14 09:02:58;;;;;;;52.30;29.77;;;;;;;5.00;100.00;99425.08;2205005;81;20991;-89
2021/11/14 09:06:02;;;;;;;58.73;31.10;;;;;;;5.03;100.00;99423.55;2205044;80;21050;-84
2021/11/14 09:09:01;;;;;;;47.90;29.15;;;;;;;5.01;100.00;99426.72;2205835;80;21038;-83
2021/11/14 09:12:04;;;;;;;48.48;31.23;;;;;;;5.12;100.00;99429.72;2204668;80;21043;-84
2021/11/14 09:15:06;;;;;;;50.92;32.85;;;;;;;5.19;100.00;99428.74;2205064;80;21055;-83
2021/11/14 09:18:08;;;;;;;47.35;29.98;;;;;;;5.20;100.00;99436.40;2205115;81;20980;-84
2021/11/14 09:21:12;;;;;;;53.73;31.33;;;;;;;5.27;100.00;99433.64;2205181;81;21008;-84
2021/11/14 09:24:13;;;;;;;44.53;27.20;;;;;;;5.34;100.00;99436.56;2205230;81;21179;-82
2021/11/14 09:27:14;;;;;;;45.92;29.67;;;;;;;5.41;100.00;99429.43;2204868;80;20984;-86
2021/11/14 09:30:16;;;;;;;47.10;30.65;;;;;;;5.61;100.00;99432.94;2179164;81;21062;-92
2021/11/14 09:33:17;;;;;;;45.78;30.23;;;;;;;5.66;100.00;99437.25;2205118;80;21003;-87
2021/11/14 09:36:18;;;;;;;46.55;26.50;;;;;;;5.66;100.00;99434.64;2205451;80;21076;-91
2021/11/14 09:39:19;;;;;;;50.80;31.07;;;;;;;5.74;100.00;99438.38;2205104;80;21054;-85
2021/11/14 09:42:19;;;;;;;51.00;31.40;;;;;;;5.82;100.00;99440.66;2205172;80;21015;-82
2021/11/14 09:45:20;;;;;;;47.00;30.02;;;;;;;5.87;100.00;99436.39;2204916;80;21056;-83
2021/11/14 09:48:21;;;;;;;39.33;25.80;;;;;;;5.95;100.00;99438.70;2205111;80;21063;-84
2021/11/14 09:51:24;;;;;;;45.67;29.48;;;;;;;6.05;100.00;99437.43;2204654;80;20999;-81
2021/11/14 09:54:25;;;;;;;52.13;33.18;;;;;;;6.17;100.00;99441.55;2204948;81;21119;-88
2021/11/14 09:57:26;;;;;;;60.15;36.45;;;;;;;6.21;100.00;99442.92;2205004;80;21494;-83
2021/11/14 10:00:28;;;;;;;50.98;33.02;;;;;;;6.28;100.00;99447.94;2205146;81;21095;-84
2021/11/14 10:03:28;;;;;;;55.55;33.88;;;;;;;6.26;100.00;99447.25;2205549;80;21019;-83
2021/11/14 10:06:29;;;;;;;52.30;31.73;;;;;;;6.34;100.00;99448.37;2205022;80;20995;-86
2021/11/14 10:09:33;;;;;;;58.60;33.53;;;;;;;6.16;100.00;99433.89;2205072;80;21016;-84
2021/11/14 10:12:36;;;;;;;52.65;33.45;;;;;;;6.16;100.00;99433.89;2205177;80;21068;-85
2021/11/14 10:15:36;;;;;;;56.05;33.48;;;;;;;6.26;100.00;99447.25;2178624;81;21063;-84
2021/11/14 10:18:37;;;;;;;54.42;33.88;;;;;;;6.27;100.00;99450.67;2205078;80;20979;-81
2021/11/14 10:21:37;;;;;;;48.58;29.90;;;;;;;6.31;100.00;99455.97;2205188;80;21020;-81
2021/11/14 10:24:38;;;;;;;51.00;32.85;;;;;;;6.25;100.00;99449.52;2205074;80;21011;-83
2021/11/14 10:27:39;;;;;;;51.48;31.55;;;;;;;6.20;100.00;99459.48;2205079;80;21011;-82
2021/11/14 10:30:41;;;;;;;54.85;32.73;;;;;;;6.25;100.00;99464.30;2178514;81;22026;-83
2021/11/14 10:33:42;;;;;;;51.88;32.60;;;;;;;6.32;100.00;99466.72;2205122;81;21028;-84
2021/11/14 10:36:43;;;;;;;55.43;34.78;;;;;;;6.41;100.00;99462.48;2205054;80;21034;-82
2021/11/14 10:39:44;;;;;;;47.62;31.45;;;;;;;6.45;100.00;99467.75;2205163;81;20976;-83
2021/11/14 10:42:45;;;;;;;51.70;29.82;;;;;;;6.31;100.00;99464.22;2217802;80;21028;-82
2021/11/14 10:45:48;;;;;;;52.03;32.50;;;;;;;6.11;100.00;99458.16;2223778;80;20992;-82
2021/11/14 10:48:49;;;;;;;57.62;33.83;;;;;;;6.05;100.00;99461.31;2223840;80;21046;-82
2021/11/14 10:51:50;;;;;;;59.38;35.75;;;;;;;6.16;100.00;99462.50;2224114;80;21448;-85
2021/11/14 10:54:51;;;;;;;58.65;36.35;;;;;;;6.15;100.00;99464.75;2224609;80;21039;-84
2021/11/14 10:57:52;;;;;;;53.02;33.35;;;;;;;6.20;100.00;99460.78;2224112;80;21020;-85
2021/11/14 11:00:55;;;;;;;55.40;35.33;;;;;;;6.24;100.00;99463.48;2224122;80;21019;-84
2021/11/14 11:03:56;;;;;;;55.28;34.80;;;;;;;6.36;100.00;99474.58;2224114;80;21076;-85
2021/11/14 11:06:59;;;;;;;55.75;33.85;;;;;;;6.55;100.00;99475.91;2224234;80;21630;-87
2021/11/14 11:09:59;;;;;;;51.73;30.55;;;;;;;6.59;100.00;99473.05;2224227;80;21091;-84
2021/11/14 11:13:00;;;;;;;54.38;32.90;;;;;;;6.57;100.00;99478.37;2224311;80;21013;-84
2021/11/14 11:16:01;;;;;;;57.58;33.88;;;;;;;6.47;100.00;99476.23;2224168;80;20965;-82
2021/11/14 11:19:02;;;;;;;58.38;34.00;;;;;;;6.50;100.00;99474.69;2224409;80;21024;-83
2021/11/14 11:22:03;;;;;;;56.18;36.17;;;;;;;6.66;100.00;99469.75;2224289;80;21559;-84
2021/11/14 11:25:04;;;;;;;51.50;32.78;;;;;;;6.79;100.00;99474.22;2224561;80;21035;-81
2021/11/14 11:28:06;;;;;;;54.25;35.90;;;;;;;6.81;100.00;99467.09;2225298;80;21103;-86
2021/11/14 11:31:07;;;;;;;62.20;38.85;;;;;;;6.74;100.00;99476.40;2225210;80;21092;-81
2021/11/14 11:34:08;;;;;;;58.92;37.50;;;;;;;6.84;100.00;99476.40;2224837;80;21020;-83
2021/11/14 11:37:09;;;;;;;66.75;40.65;;;;;;;6.95;100.00;99471.08;2224431;80;21024;-80
2021/11/14 11:40:10;;;;;;;55.95;32.80;;;;;;;7.05;100.00;99475.80;2223768;80;21553;-85
2021/11/14 11:43:11;;;;;;;59.90;37.20;;;;;;;7.05;100.00;99470.59;2209513;80;21079;-86
2021/11/14 11:46:12;;;;;;;56.42;34.98;;;;;;;7.01;100.00;99473.59;2205180;81;21019;-87
2021/11/14 11:49:14;;;;;;;64.65;38.50;;;;;;;7.00;100.00;99472.77;2205133;80;21110;-86
2021/11/14 11:52:19;;;;;;;63.28;37.60;;;;;;;7.04;100.00;99465.05;2205089;81;21111;-84
2021/11/14 11:55:20;;;;;;;61.50;34.58;;;;;;;7.14;100.00;99465.03;2205713;81;21393;-86
2021/11/14 11:58:20;;;;;;;55.85;35.33;;;;;;;7.21;100.00;99468.70;2205439;80;21103;-85
2021/11/14 12:01:21;;;;;;;55.88;35.15;;;;;;;7.22;100.00;99475.55;2205287;81;21439;-85
2021/11/14 12:04:22;;;;;;;55.48;33.35;;;;;;;7.16;100.00;99466.19;2205484;80;20983;-87
2021/11/14 12:07:25;;;;;;;63.92;36.50;;;;;;;7.04;100.00;99475.45;2205582;80;21550;-83
2021/11/14 12:10:26;;;;;;;58.35;32.83;;;;;;;6.95;100.00;99474.13;2205413;81;21090;-83
2021/11/14 12:13:27;;;;;;;71.00;39.63;;;;;;;7.01;100.00;99484.83;2205341;81;21506;-82
2021/11/14 12:16:29;;;;;;;71.90;37.03;;;;;;;6.94;100.00;99488.11;2205764;80;20992;-83
2021/11/14 12:19:30;;;;;;;82.20;43.13;;;;;;;6.93;100.00;99486.47;2205528;81;21044;-84
2021/11/14 12:22:31;;;;;;;58.95;34.00;;;;;;;6.85;100.00;99491.88;2205243;81;20998;-85
2021/11/14 12:25:33;;;;;;;66.00;38.65;;;;;;;6.77;100.00;99495.67;2205280;81;20948;-84
2021/11/14 12:28:34;;;;;;;65.37;36.68;;;;;;;6.73;100.00;99498.19;2205220;80;20987;-84
2021/11/14 12:31:35;;;;;;;60.67;37.17;;;;;;;6.74;100.00;99501.61;2205196;80;21090;-81
2021/11/14 12:34:37;;;;;;;67.12;38.00;;;;;;;6.55;100.00;99503.23;2205291;81;21050;-84
2021/11/14 12:37:37;;;;;;;69.50;40.88;;;;;;;6.49;100.00;99502.94;2205781;81;21011;-84
2021/11/14 12:40:38;;;;;;;75.67;43.15;;;;;;;6.47;100.00;99503.55;2205406;81;21038;-86
2021/11/14 12:43:39;;;;;;;78.33;44.05;;;;;;;6.46;100.00;99504.03;2205399;79;21070;-85
2021/11/14 12:46:40;;;;;;;71.90;41.63;;;;;;;6.57;100.00;99497.88;2206299;81;21016;-86
2021/11/14 12:49:43;;;;;;;74.00;41.35;;;;;;;6.68;100.00;99504.77;2205535;81;21094;-82
2021/11/14 12:52:44;;;;;;;68.95;40.05;;;;;;;6.74;100.00;99506.81;2204731;81;21128;-85
2021/11/14 12:55:45;;;;;;;62.20;37.93;;;;;;;6.74;100.00;99510.72;2205218;81;20975;-84
2021/11/14 12:58:46;;;;;;;64.87;39.30;;;;;;;6.66;100.00;99506.18;2205339;80;21027;-86
2021/11/14 13:01:47;;;;;;;62.78;38.70;;;;;;;6.64;100.00;99512.48;2205224;81;21003;-81
2021/11/14 13:04:47;;;;;;;64.45;39.65;;;;;;;6.66;100.00;99518.38;2205261;80;21516;-85
2021/11/14 13:07:48;;;;;;;53.20;32.25;;;;;;;6.67;100.00;99517.41;2205395;80;21372;-84
2021/11/14 13:10:49;;;;;;;55.88;34.00;;;;;;;6.61;100.00;99518.80;2205322;80;21147;-82
2021/11/14 13:13:50;;;;;;;54.63;33.80;;;;;;;6.54;100.00;99524.19;2205251;81;20968;-82
2021/11/14 13:16:51;;;;;;;47.78;31.17;;;;;;;6.47;100.00;99523.89;2205422;81;21538;-83
2021/11/14 13:19:52;;;;;;;47.78;31.35;;;;;;;6.50;100.00;99522.82;2205303;80;20932;-86
2021/11/14 13:22:54;;;;;;;52.35;32.03;;;;;;;6.46;100.00;99529.23;2205111;80;21059;-82
2021/11/14 13:25:55;;;;;;;48.15;30.85;;;;;;;6.40;100.00;99528.00;2205233;80;21150;-84
2021/11/14 13:28:59;;;;;;;49.23;31.33;;;;;;;6.39;100.00;99530.23;2205571;80;21024;-86
2021/11/14 13:31:59;;;;;;;47.98;29.25;;;;;;;6.34;100.00;99529.83;2204969;81;21027;-87
2021/11/14 13:35:00;;;;;;;49.27;31.57;;;;;;;6.09;100.00;99529.80;2205195;81;21099;-85
2021/11/14 13:38:01;;;;;;;59.18;35.05;;;;;;;5.96;100.00;99540.91;2205318;80;21082;-85
2021/11/14 13:41:02;;;;;;;58.38;35.63;;;;;;;5.93;100.00;99542.45;2205153;80;21510;-86
2021/11/14 13:44:03;;;;;;;57.23;35.58;;;;;;;5.90;100.00;99542.23;2221156;80;21099;-84
2021/11/14 13:47:04;;;;;;;51.83;32.20;;;;;;;5.93;100.00;99540.67;2224233;80;20985;-86
2021/11/14 13:50:05;;;;;;;61.85;36.73;;;;;;;5.90;100.00;99544.84;2223997;80;21032;-84
2021/11/14 13:53:06;;;;;;;57.55;35.95;;;;;;;5.87;100.00;99546.38;2224144;80;21027;-85
2021/11/14 13:56:07;;;;;;;61.85;38.33;;;;;;;5.99;100.00;99552.34;2224167;80;21008;-86